Terminal Aerodrome Forecast
Issued by NWS

Home | Current Version | Previous Version | Text Only | Print | Product List | Glossary On
Versions: 1 2 3 4 5 6 7 8 9 10 11 12 13 14 15 16 17 18 19 20 21 22 23 24 25 26 27 28 29 30 31 32 33 34
000
FTUS45 KBYZ 260535
TAFLVM
TAF
KLVM 260535Z 2606/2706 08014KT P6SM FEW020 OVC080
     FM260800 08014KT P6SM VCSH FEW010 SCT020 OVC060
     FM261000 08014KT 4SM -RASN SCT008 OVC020
      TEMPO 2611/2615 2SM -RASN BR OVC006
     FM261500 08016KT 2SM -SN BR OVC006
      TEMPO 2615/2619 1/2SM SN FZFG OVC004
     FM261900 08016KT 3SM -RASN SCT008 OVC020
     FM270200 08010KT P6SM VCSH SCT012 OVC025=

USA.gov is the U.S. government's official web portal to all federal, state and local government web resources and services.